Leolyn, Pennsylvania
Current Conditions -  °F | °C
As of 7:54 PM on Friday 24 Oct 2014 (Local Time) from KIPT Reporting Station
Clear Clear  
Wind Chill: 59°   Ceiling: Unl
Heat Index: 59°   Visibility: 10mi
Dew Point: 29°   Wind: 6mph
Humidity: 32%   Direction: 290°WNW
Pressure: 29.9"   Gusts: NA
Location:  41.5548°N, 76.8911°W
Report Text: KIPT 242354Z 29005KT 10SM CLR 15/M02 A2990 RMK AO2 SLP123 T01501017 10217 20144 53016
Loading
Personal Weather Stations






























Interactive Weather Map
Tropical Storm Tracking
New forecast layout! Learn more

10-Day Weather Forecast

Advertisements
Track Severe Weather on mobile